sensor_id;sensor_type;location;lat;lon;timestamp;P1;durP1;ratioP1;P2;durP2;ratioP2
23470;SDS011;11908;50.806;4.424;2024-01-06T00:00:34;6.65;;;3.72;;
23470;SDS011;11908;50.806;4.424;2024-01-06T00:03:00;13.00;;;4.18;;
23470;SDS011;11908;50.806;4.424;2024-01-06T00:05:25;12.35;;;4.70;;
23470;SDS011;11908;50.806;4.424;2024-01-06T00:07:51;15.07;;;4.30;;
23470;SDS011;11908;50.806;4.424;2024-01-06T00:10:17;12.18;;;4.43;;
23470;SDS011;11908;50.806;4.424;2024-01-06T00:12:43;9.57;;;4.82;;
23470;SDS011;11908;50.806;4.424;2024-01-06T00:15:09;8.60;;;4.70;;
23470;SDS011;11908;50.806;4.424;2024-01-06T00:17:35;12.43;;;4.60;;
23470;SDS011;11908;50.806;4.424;2024-01-06T00:20:01;7.35;;;4.00;;
23470;SDS011;11908;50.806;4.424;2024-01-06T00:22:27;11.43;;;4.00;;
23470;SDS011;11908;50.806;4.424;2024-01-06T00:24:53;9.25;;;4.03;;
23470;SDS011;11908;50.806;4.424;2024-01-06T00:27:19;14.57;;;4.28;;
23470;SDS011;11908;50.806;4.424;2024-01-06T00:29:44;6.30;;;3.40;;
23470;SDS011;11908;50.806;4.424;2024-01-06T00:32:10;7.20;;;3.65;;
23470;SDS011;11908;50.806;4.424;2024-01-06T00:34:36;8.30;;;3.78;;
23470;SDS011;11908;50.806;4.424;2024-01-06T00:37:02;5.65;;;3.33;;
23470;SDS011;11908;50.806;4.424;2024-01-06T00:39:28;8.68;;;3.70;;
23470;SDS011;11908;50.806;4.424;2024-01-06T00:41:54;6.93;;;3.88;;
23470;SDS011;11908;50.806;4.424;2024-01-06T00:44:19;6.30;;;3.58;;
23470;SDS011;11908;50.806;4.424;2024-01-06T00:46:45;9.68;;;4.05;;
23470;SDS011;11908;50.806;4.424;2024-01-06T00:49:11;7.43;;;3.80;;
23470;SDS011;11908;50.806;4.424;2024-01-06T00:51:37;5.93;;;3.75;;
23470;SDS011;11908;50.806;4.424;2024-01-06T00:54:02;4.53;;;3.45;;
23470;SDS011;11908;50.806;4.424;2024-01-06T00:56:28;9.70;;;3.80;;
23470;SDS011;11908;50.806;4.424;2024-01-06T00:58:54;8.95;;;3.60;;
23470;SDS011;11908;50.806;4.424;2024-01-06T01:01:19;4.57;;;3.55;;
23470;SDS011;11908;50.806;4.424;2024-01-06T01:03:46;9.18;;;3.58;;
23470;SDS011;11908;50.806;4.424;2024-01-06T01:06:12;7.07;;;4.00;;
23470;SDS011;11908;50.806;4.424;2024-01-06T01:08:37;5.72;;;3.55;;
23470;SDS011;11908;50.806;4.424;2024-01-06T01:11:03;6.38;;;3.50;;
23470;SDS011;11908;50.806;4.424;2024-01-06T01:13:29;5.97;;;2.90;;
23470;SDS011;11908;50.806;4.424;2024-01-06T01:15:55;5.95;;;3.35;;
23470;SDS011;11908;50.806;4.424;2024-01-06T01:18:21;5.60;;;3.90;;
23470;SDS011;11908;50.806;4.424;2024-01-06T01:20:46;7.63;;;3.60;;
23470;SDS011;11908;50.806;4.424;2024-01-06T01:23:12;5.63;;;3.80;;
23470;SDS011;11908;50.806;4.424;2024-01-06T01:25:38;4.22;;;3.47;;
23470;SDS011;11908;50.806;4.424;2024-01-06T01:28:04;11.90;;;4.32;;
23470;SDS011;11908;50.806;4.424;2024-01-06T01:30:29;9.52;;;3.58;;
23470;SDS011;11908;50.806;4.424;2024-01-06T01:32:57;9.73;;;4.38;;
23470;SDS011;11908;50.806;4.424;2024-01-06T01:35:23;8.38;;;4.03;;
23470;SDS011;11908;50.806;4.424;2024-01-06T01:37:49;9.45;;;4.18;;
23470;SDS011;11908;50.806;4.424;2024-01-06T01:40:15;12.43;;;4.20;;
23470;SDS011;11908;50.806;4.424;2024-01-06T01:42:43;9.80;;;4.47;;
23470;SDS011;11908;50.806;4.424;2024-01-06T01:45:11;11.05;;;4.35;;
23470;SDS011;11908;50.806;4.424;2024-01-06T01:47:36;9.65;;;4.25;;
23470;SDS011;11908;50.806;4.424;2024-01-06T01:50:02;8.48;;;4.05;;
23470;SDS011;11908;50.806;4.424;2024-01-06T01:52:29;10.88;;;4.15;;
23470;SDS011;11908;50.806;4.424;2024-01-06T01:54:55;7.05;;;3.22;;
23470;SDS011;11908;50.806;4.424;2024-01-06T01:57:21;6.18;;;3.45;;
23470;SDS011;11908;50.806;4.424;2024-01-06T01:59:50;5.18;;;3.13;;
23470;SDS011;11908;50.806;4.424;2024-01-06T02:02:18;5.82;;;3.15;;
23470;SDS011;11908;50.806;4.424;2024-01-06T02:04:44;4.43;;;2.65;;
23470;SDS011;11908;50.806;4.424;2024-01-06T02:07:10;8.02;;;3.05;;
23470;SDS011;11908;50.806;4.424;2024-01-06T02:09:36;4.97;;;2.60;;
23470;SDS011;11908;50.806;4.424;2024-01-06T02:12:02;6.47;;;2.53;;
23470;SDS011;11908;50.806;4.424;2024-01-06T02:14:28;2.30;;;1.67;;
23470;SDS011;11908;50.806;4.424;2024-01-06T02:16:53;5.90;;;2.28;;
23470;SDS011;11908;50.806;4.424;2024-01-06T02:19:19;6.30;;;2.20;;
23470;SDS011;11908;50.806;4.424;2024-01-06T02:21:49;7.47;;;2.25;;
23470;SDS011;11908;50.806;4.424;2024-01-06T02:24:19;5.75;;;2.10;;
23470;SDS011;11908;50.806;4.424;2024-01-06T02:26:45;3.05;;;1.48;;
23470;SDS011;11908;50.806;4.424;2024-01-06T02:29:11;2.03;;;1.65;;
23470;SDS011;11908;50.806;4.424;2024-01-06T02:31:37;3.50;;;1.92;;
23470;SDS011;11908;50.806;4.424;2024-01-06T02:34:03;3.08;;;1.98;;
23470;SDS011;11908;50.806;4.424;2024-01-06T02:36:29;3.97;;;2.05;;
23470;SDS011;11908;50.806;4.424;2024-01-06T02:38:54;3.33;;;2.20;;
23470;SDS011;11908;50.806;4.424;2024-01-06T02:41:20;4.15;;;1.70;;
23470;SDS011;11908;50.806;4.424;2024-01-06T02:43:46;4.13;;;1.90;;
23470;SDS011;11908;50.806;4.424;2024-01-06T02:46:12;3.15;;;1.77;;
23470;SDS011;11908;50.806;4.424;2024-01-06T02:48:38;2.90;;;2.08;;
23470;SDS011;11908;50.806;4.424;2024-01-06T02:51:03;3.70;;;1.98;;
23470;SDS011;11908;50.806;4.424;2024-01-06T02:53:29;2.33;;;1.50;;
23470;SDS011;11908;50.806;4.424;2024-01-06T02:55:55;2.67;;;1.67;;
23470;SDS011;11908;50.806;4.424;2024-01-06T02:58:20;2.13;;;1.45;;
23470;SDS011;11908;50.806;4.424;2024-01-06T03:00:46;1.80;;;1.27;;
23470;SDS011;11908;50.806;4.424;2024-01-06T03:03:12;1.95;;;1.33;;
23470;SDS011;11908;50.806;4.424;2024-01-06T03:05:37;3.80;;;1.92;;
23470;SDS011;11908;50.806;4.424;2024-01-06T03:08:03;3.42;;;2.10;;
23470;SDS011;11908;50.806;4.424;2024-01-06T03:10:29;1.98;;;1.63;;
23470;SDS011;11908;50.806;4.424;2024-01-06T03:12:55;2.08;;;1.80;;
23470;SDS011;11908;50.806;4.424;2024-01-06T03:15:21;2.45;;;1.55;;
23470;SDS011;11908;50.806;4.424;2024-01-06T03:17:47;2.17;;;1.92;;
23470;SDS011;11908;50.806;4.424;2024-01-06T03:20:13;3.30;;;2.00;;
23470;SDS011;11908;50.806;4.424;2024-01-06T03:22:38;3.22;;;1.90;;
23470;SDS011;11908;50.806;4.424;2024-01-06T03:25:04;2.40;;;1.92;;
23470;SDS011;11908;50.806;4.424;2024-01-06T03:27:31;5.15;;;2.08;;
23470;SDS011;11908;50.806;4.424;2024-01-06T03:29:57;2.95;;;2.22;;
23470;SDS011;11908;50.806;4.424;2024-01-06T03:32:22;3.15;;;2.25;;
23470;SDS011;11908;50.806;4.424;2024-01-06T03:34:49;4.20;;;2.63;;
23470;SDS011;11908;50.806;4.424;2024-01-06T03:37:15;3.75;;;2.50;;
23470;SDS011;11908;50.806;4.424;2024-01-06T03:39:40;4.50;;;2.30;;
23470;SDS011;11908;50.806;4.424;2024-01-06T03:42:06;6.35;;;2.67;;
23470;SDS011;11908;50.806;4.424;2024-01-06T03:44:32;3.75;;;2.85;;
23470;SDS011;11908;50.806;4.424;2024-01-06T03:46:59;3.08;;;2.78;;
23470;SDS011;11908;50.806;4.424;2024-01-06T03:49:25;7.10;;;3.45;;
23470;SDS011;11908;50.806;4.424;2024-01-06T03:51:51;5.97;;;4.55;;
23470;SDS011;11908;50.806;4.424;2024-01-06T03:54:17;8.55;;;4.85;;
23470;SDS011;11908;50.806;4.424;2024-01-06T03:56:42;10.98;;;5.55;;
23470;SDS011;11908;50.806;4.424;2024-01-06T03:59:08;9.13;;;6.45;;
23470;SDS011;11908;50.806;4.424;2024-01-06T04:01:34;10.15;;;7.03;;
23470;SDS011;11908;50.806;4.424;2024-01-06T04:04:04;12.23;;;8.00;;
23470;SDS011;11908;50.806;4.424;2024-01-06T04:06:30;12.40;;;8.07;;
23470;SDS011;11908;50.806;4.424;2024-01-06T04:08:59;12.60;;;8.43;;
23470;SDS011;11908;50.806;4.424;2024-01-06T04:11:25;13.43;;;8.75;;
23470;SDS011;11908;50.806;4.424;2024-01-06T04:13:51;15.70;;;9.90;;
23470;SDS011;11908;50.806;4.424;2024-01-06T04:16:17;19.10;;;9.93;;
23470;SDS011;11908;50.806;4.424;2024-01-06T04:18:43;12.93;;;9.82;;
23470;SDS011;11908;50.806;4.424;2024-01-06T04:21:08;16.95;;;10.95;;
23470;SDS011;11908;50.806;4.424;2024-01-06T04:23:34;13.80;;;10.80;;
23470;SDS011;11908;50.806;4.424;2024-01-06T04:26:00;14.07;;;10.80;;
23470;SDS011;11908;50.806;4.424;2024-01-06T04:28:26;17.20;;;11.65;;
23470;SDS011;11908;50.806;4.424;2024-01-06T04:30:52;15.73;;;10.52;;
23470;SDS011;11908;50.806;4.424;2024-01-06T04:33:18;18.58;;;11.50;;
23470;SDS011;11908;50.806;4.424;2024-01-06T04:35:44;17.73;;;11.68;;
23470;SDS011;11908;50.806;4.424;2024-01-06T04:38:10;20.42;;;11.77;;
23470;SDS011;11908;50.806;4.424;2024-01-06T04:40:35;17.48;;;12.35;;
23470;SDS011;11908;50.806;4.424;2024-01-06T04:43:01;21.63;;;12.07;;
23470;SDS011;11908;50.806;4.424;2024-01-06T04:45:28;19.88;;;12.93;;
23470;SDS011;11908;50.806;4.424;2024-01-06T04:47:54;21.77;;;11.73;;
23470;SDS011;11908;50.806;4.424;2024-01-06T04:50:19;19.98;;;11.80;;
23470;SDS011;11908;50.806;4.424;2024-01-06T04:52:45;21.35;;;11.88;;
23470;SDS011;11908;50.806;4.424;2024-01-06T04:55:11;20.65;;;12.43;;
23470;SDS011;11908;50.806;4.424;2024-01-06T04:57:37;19.35;;;11.63;;
23470;SDS011;11908;50.806;4.424;2024-01-06T05:00:03;21.02;;;12.05;;
23470;SDS011;11908;50.806;4.424;2024-01-06T05:02:29;20.60;;;11.63;;
23470;SDS011;11908;50.806;4.424;2024-01-06T05:04:55;19.15;;;12.20;;
23470;SDS011;11908;50.806;4.424;2024-01-06T05:07:21;19.95;;;11.40;;
23470;SDS011;11908;50.806;4.424;2024-01-06T05:09:46;20.90;;;11.43;;
23470;SDS011;11908;50.806;4.424;2024-01-06T05:12:12;21.90;;;12.38;;
23470;SDS011;11908;50.806;4.424;2024-01-06T05:14:38;15.98;;;10.13;;
23470;SDS011;11908;50.806;4.424;2024-01-06T05:17:04;17.98;;;10.95;;
23470;SDS011;11908;50.806;4.424;2024-01-06T05:19:30;17.65;;;10.18;;
23470;SDS011;11908;50.806;4.424;2024-01-06T05:21:56;20.17;;;9.52;;
23470;SDS011;11908;50.806;4.424;2024-01-06T05:24:22;17.00;;;10.02;;
23470;SDS011;11908;50.806;4.424;2024-01-06T05:26:48;15.98;;;9.93;;
23470;SDS011;11908;50.806;4.424;2024-01-06T05:29:14;16.90;;;9.85;;
23470;SDS011;11908;50.806;4.424;2024-01-06T05:31:39;17.42;;;10.65;;
23470;SDS011;11908;50.806;4.424;2024-01-06T05:34:05;15.50;;;10.13;;
23470;SDS011;11908;50.806;4.424;2024-01-06T05:36:31;20.00;;;9.32;;
23470;SDS011;11908;50.806;4.424;2024-01-06T05:38:57;20.20;;;9.27;;
23470;SDS011;11908;50.806;4.424;2024-01-06T05:41:22;18.98;;;8.93;;
23470;SDS011;11908;50.806;4.424;2024-01-06T05:43:48;16.48;;;9.32;;
23470;SDS011;11908;50.806;4.424;2024-01-06T05:46:23;18.55;;;9.88;;
23470;SDS011;11908;50.806;4.424;2024-01-06T05:48:49;14.30;;;9.63;;
23470;SDS011;11908;50.806;4.424;2024-01-06T05:51:15;16.88;;;9.88;;
23470;SDS011;11908;50.806;4.424;2024-01-06T05:53:41;13.55;;;9.05;;
23470;SDS011;11908;50.806;4.424;2024-01-06T05:56:09;16.73;;;9.27;;
23470;SDS011;11908;50.806;4.424;2024-01-06T05:58:35;13.27;;;8.57;;
23470;SDS011;11908;50.806;4.424;2024-01-06T06:01:00;16.63;;;8.85;;
23470;SDS011;11908;50.806;4.424;2024-01-06T06:03:26;16.77;;;8.75;;
23470;SDS011;11908;50.806;4.424;2024-01-06T06:05:52;17.20;;;9.23;;
23470;SDS011;11908;50.806;4.424;2024-01-06T06:08:18;14.05;;;9.70;;
23470;SDS011;11908;50.806;4.424;2024-01-06T06:10:44;16.08;;;9.32;;
23470;SDS011;11908;50.806;4.424;2024-01-06T06:13:27;16.90;;;10.15;;
23470;SDS011;11908;50.806;4.424;2024-01-06T06:15:53;17.48;;;10.27;;
23470;SDS011;11908;50.806;4.424;2024-01-06T06:18:19;16.73;;;10.68;;
23470;SDS011;11908;50.806;4.424;2024-01-06T06:20:45;14.82;;;9.55;;
23470;SDS011;11908;50.806;4.424;2024-01-06T06:23:12;14.85;;;9.70;;
23470;SDS011;11908;50.806;4.424;2024-01-06T06:25:38;14.95;;;10.32;;
23470;SDS011;11908;50.806;4.424;2024-01-06T06:28:04;17.10;;;8.55;;
23470;SDS011;11908;50.806;4.424;2024-01-06T06:30:30;8.90;;;6.47;;
23470;SDS011;11908;50.806;4.424;2024-01-06T06:32:55;12.10;;;7.00;;
23470;SDS011;11908;50.806;4.424;2024-01-06T06:35:22;13.23;;;6.55;;
23470;SDS011;11908;50.806;4.424;2024-01-06T06:37:48;9.45;;;6.70;;
23470;SDS011;11908;50.806;4.424;2024-01-06T06:40:14;13.80;;;6.43;;
23470;SDS011;11908;50.806;4.424;2024-01-06T06:42:40;9.40;;;6.57;;
23470;SDS011;11908;50.806;4.424;2024-01-06T06:45:06;11.15;;;6.47;;
23470;SDS011;11908;50.806;4.424;2024-01-06T06:47:32;10.77;;;6.57;;
23470;SDS011;11908;50.806;4.424;2024-01-06T06:49:58;11.77;;;6.45;;
23470;SDS011;11908;50.806;4.424;2024-01-06T06:52:23;9.10;;;7.05;;
23470;SDS011;11908;50.806;4.424;2024-01-06T06:54:49;11.73;;;7.30;;
23470;SDS011;11908;50.806;4.424;2024-01-06T06:57:17;14.70;;;7.63;;
23470;SDS011;11908;50.806;4.424;2024-01-06T06:59:42;11.10;;;7.18;;
23470;SDS011;11908;50.806;4.424;2024-01-06T07:02:08;11.27;;;7.13;;
23470;SDS011;11908;50.806;4.424;2024-01-06T07:04:34;11.15;;;7.68;;
23470;SDS011;11908;50.806;4.424;2024-01-06T07:07:00;11.55;;;7.60;;
23470;SDS011;11908;50.806;4.424;2024-01-06T07:09:25;13.73;;;7.20;;
23470;SDS011;11908;50.806;4.424;2024-01-06T07:11:51;10.63;;;7.22;;
23470;SDS011;11908;50.806;4.424;2024-01-06T07:14:17;13.75;;;7.10;;
23470;SDS011;11908;50.806;4.424;2024-01-06T07:16:42;13.48;;;7.70;;
23470;SDS011;11908;50.806;4.424;2024-01-06T07:19:08;14.75;;;8.23;;
23470;SDS011;11908;50.806;4.424;2024-01-06T07:21:34;14.05;;;7.65;;
23470;SDS011;11908;50.806;4.424;2024-01-06T07:24:00;12.30;;;7.18;;
23470;SDS011;11908;50.806;4.424;2024-01-06T07:26:26;13.45;;;8.40;;
23470;SDS011;11908;50.806;4.424;2024-01-06T07:28:52;14.82;;;8.35;;
23470;SDS011;11908;50.806;4.424;2024-01-06T07:31:18;15.13;;;9.18;;
23470;SDS011;11908;50.806;4.424;2024-01-06T07:33:43;13.48;;;7.63;;
23470;SDS011;11908;50.806;4.424;2024-01-06T07:36:09;20.58;;;8.75;;
23470;SDS011;11908;50.806;4.424;2024-01-06T07:38:35;15.25;;;8.60;;
23470;SDS011;11908;50.806;4.424;2024-01-06T07:41:01;12.60;;;9.02;;
23470;SDS011;11908;50.806;4.424;2024-01-06T07:43:29;14.73;;;9.20;;
23470;SDS011;11908;50.806;4.424;2024-01-06T07:45:55;15.40;;;9.48;;
23470;SDS011;11908;50.806;4.424;2024-01-06T07:48:21;11.75;;;8.55;;
23470;SDS011;11908;50.806;4.424;2024-01-06T07:50:47;14.52;;;9.13;;
23470;SDS011;11908;50.806;4.424;2024-01-06T07:53:13;16.17;;;8.93;;
23470;SDS011;11908;50.806;4.424;2024-01-06T07:55:42;16.05;;;10.40;;
23470;SDS011;11908;50.806;4.424;2024-01-06T07:58:07;18.00;;;9.63;;
23470;SDS011;11908;50.806;4.424;2024-01-06T08:00:33;13.60;;;10.00;;
23470;SDS011;11908;50.806;4.424;2024-01-06T08:02:59;16.92;;;10.98;;
23470;SDS011;11908;50.806;4.424;2024-01-06T08:05:25;18.20;;;10.80;;
23470;SDS011;11908;50.806;4.424;2024-01-06T08:07:51;15.80;;;9.30;;
23470;SDS011;11908;50.806;4.424;2024-01-06T08:10:17;12.93;;;9.13;;
23470;SDS011;11908;50.806;4.424;2024-01-06T08:12:43;12.85;;;8.25;;
23470;SDS011;11908;50.806;4.424;2024-01-06T08:15:09;16.90;;;9.45;;
23470;SDS011;11908;50.806;4.424;2024-01-06T08:17:35;13.57;;;9.38;;
23470;SDS011;11908;50.806;4.424;2024-01-06T08:20:01;14.75;;;9.70;;
23470;SDS011;11908;50.806;4.424;2024-01-06T08:22:28;15.75;;;9.02;;
23470;SDS011;11908;50.806;4.424;2024-01-06T08:24:54;11.18;;;7.82;;
23470;SDS011;11908;50.806;4.424;2024-01-06T08:27:19;14.20;;;7.95;;
23470;SDS011;11908;50.806;4.424;2024-01-06T08:29:46;10.48;;;7.25;;
23470;SDS011;11908;50.806;4.424;2024-01-06T08:32:12;12.10;;;7.88;;
23470;SDS011;11908;50.806;4.424;2024-01-06T08:34:39;8.20;;;6.82;;
23470;SDS011;11908;50.806;4.424;2024-01-06T08:37:05;10.45;;;7.30;;
23470;SDS011;11908;50.806;4.424;2024-01-06T08:39:31;10.93;;;7.35;;
23470;SDS011;11908;50.806;4.424;2024-01-06T08:41:56;10.75;;;7.10;;
23470;SDS011;11908;50.806;4.424;2024-01-06T08:44:23;12.82;;;8.35;;
23470;SDS011;11908;50.806;4.424;2024-01-06T08:46:49;12.35;;;7.93;;
23470;SDS011;11908;50.806;4.424;2024-01-06T08:49:15;14.80;;;8.77;;
23470;SDS011;11908;50.806;4.424;2024-01-06T08:51:41;17.25;;;9.88;;
23470;SDS011;11908;50.806;4.424;2024-01-06T08:54:07;12.25;;;7.88;;
23470;SDS011;11908;50.806;4.424;2024-01-06T08:56:33;14.68;;;8.40;;
23470;SDS011;11908;50.806;4.424;2024-01-06T08:58:59;18.83;;;9.57;;
23470;SDS011;11908;50.806;4.424;2024-01-06T09:01:25;15.52;;;9.32;;
23470;SDS011;11908;50.806;4.424;2024-01-06T09:03:51;13.07;;;8.70;;
23470;SDS011;11908;50.806;4.424;2024-01-06T09:06:16;14.88;;;9.38;;
23470;SDS011;11908;50.806;4.424;2024-01-06T09:08:42;16.67;;;9.45;;
23470;SDS011;11908;50.806;4.424;2024-01-06T09:11:08;14.57;;;8.38;;
23470;SDS011;11908;50.806;4.424;2024-01-06T09:13:33;15.65;;;7.85;;
23470;SDS011;11908;50.806;4.424;2024-01-06T09:15:59;15.50;;;8.23;;
23470;SDS011;11908;50.806;4.424;2024-01-06T09:18:26;12.60;;;7.65;;
23470;SDS011;11908;50.806;4.424;2024-01-06T09:20:52;10.45;;;8.35;;
23470;SDS011;11908;50.806;4.424;2024-01-06T09:23:19;11.77;;;8.38;;
23470;SDS011;11908;50.806;4.424;2024-01-06T09:25:45;16.77;;;8.98;;
23470;SDS011;11908;50.806;4.424;2024-01-06T09:28:11;13.85;;;8.88;;
23470;SDS011;11908;50.806;4.424;2024-01-06T09:30:37;11.70;;;7.72;;
23470;SDS011;11908;50.806;4.424;2024-01-06T09:33:02;13.30;;;8.75;;
23470;SDS011;11908;50.806;4.424;2024-01-06T09:35:28;12.23;;;8.40;;
23470;SDS011;11908;50.806;4.424;2024-01-06T09:37:54;12.38;;;8.32;;
23470;SDS011;11908;50.806;4.424;2024-01-06T09:40:21;13.05;;;8.70;;
23470;SDS011;11908;50.806;4.424;2024-01-06T09:42:48;13.15;;;8.70;;
23470;SDS011;11908;50.806;4.424;2024-01-06T09:45:14;14.13;;;8.45;;
23470;SDS011;11908;50.806;4.424;2024-01-06T09:47:40;15.50;;;8.65;;
23470;SDS011;11908;50.806;4.424;2024-01-06T09:50:08;13.55;;;7.75;;
23470;SDS011;11908;50.806;4.424;2024-01-06T09:52:38;14.15;;;8.23;;
23470;SDS011;11908;50.806;4.424;2024-01-06T09:55:11;12.15;;;7.93;;
23470;SDS011;11908;50.806;4.424;2024-01-06T09:57:37;14.15;;;6.85;;
23470;SDS011;11908;50.806;4.424;2024-01-06T10:00:04;9.95;;;5.93;;
23470;SDS011;11908;50.806;4.424;2024-01-06T10:02:30;13.07;;;7.15;;
23470;SDS011;11908;50.806;4.424;2024-01-06T10:04:59;11.32;;;6.40;;
23470;SDS011;11908;50.806;4.424;2024-01-06T10:07:27;7.65;;;5.80;;
23470;SDS011;11908;50.806;4.424;2024-01-06T10:09:56;9.45;;;6.72;;
23470;SDS011;11908;50.806;4.424;2024-01-06T10:12:23;9.40;;;6.75;;
23470;SDS011;11908;50.806;4.424;2024-01-06T10:14:51;10.25;;;7.55;;
23470;SDS011;11908;50.806;4.424;2024-01-06T10:17:17;10.45;;;6.70;;
23470;SDS011;11908;50.806;4.424;2024-01-06T10:19:46;8.93;;;6.28;;
23470;SDS011;11908;50.806;4.424;2024-01-06T10:22:13;11.43;;;7.63;;
23470;SDS011;11908;50.806;4.424;2024-01-06T10:24:38;14.13;;;6.75;;
23470;SDS011;11908;50.806;4.424;2024-01-06T10:27:04;10.05;;;7.18;;
23470;SDS011;11908;50.806;4.424;2024-01-06T10:29:30;12.45;;;7.68;;
23470;SDS011;11908;50.806;4.424;2024-01-06T10:31:56;15.13;;;8.35;;
23470;SDS011;11908;50.806;4.424;2024-01-06T10:34:23;14.10;;;10.18;;
23470;SDS011;11908;50.806;4.424;2024-01-06T10:36:49;12.68;;;7.28;;
23470;SDS011;11908;50.806;4.424;2024-01-06T10:39:17;11.75;;;7.65;;
23470;SDS011;11908;50.806;4.424;2024-01-06T10:41:43;12.18;;;8.10;;
23470;SDS011;11908;50.806;4.424;2024-01-06T10:44:10;15.95;;;9.80;;
23470;SDS011;11908;50.806;4.424;2024-01-06T10:46:38;13.75;;;7.82;;
23470;SDS011;11908;50.806;4.424;2024-01-06T10:49:05;9.20;;;6.82;;
23470;SDS011;11908;50.806;4.424;2024-01-06T10:51:34;12.93;;;6.80;;
23470;SDS011;11908;50.806;4.424;2024-01-06T10:54:02;11.52;;;6.95;;
23470;SDS011;11908;50.806;4.424;2024-01-06T10:56:29;8.70;;;6.15;;
23470;SDS011;11908;50.806;4.424;2024-01-06T10:58:56;11.80;;;6.68;;
23470;SDS011;11908;50.806;4.424;2024-01-06T11:01:22;11.00;;;7.10;;
23470;SDS011;11908;50.806;4.424;2024-01-06T11:03:49;7.13;;;5.28;;
23470;SDS011;11908;50.806;4.424;2024-01-06T11:06:16;10.35;;;6.10;;
23470;SDS011;11908;50.806;4.424;2024-01-06T11:08:48;11.27;;;7.05;;
23470;SDS011;11908;50.806;4.424;2024-01-06T11:11:16;11.98;;;7.03;;
23470;SDS011;11908;50.806;4.424;2024-01-06T11:13:43;13.70;;;8.00;;
23470;SDS011;11908;50.806;4.424;2024-01-06T11:16:10;11.93;;;6.78;;
23470;SDS011;11908;50.806;4.424;2024-01-06T11:18:37;10.32;;;7.85;;
23470;SDS011;11908;50.806;4.424;2024-01-06T11:23:42;9.18;;;6.40;;
23470;SDS011;11908;50.806;4.424;2024-01-06T11:26:08;12.32;;;7.45;;
23470;SDS011;11908;50.806;4.424;2024-01-06T11:28:52;10.65;;;7.50;;
23470;SDS011;11908;50.806;4.424;2024-01-06T11:31:20;10.02;;;6.65;;
23470;SDS011;11908;50.806;4.424;2024-01-06T11:33:46;11.23;;;7.25;;
23470;SDS011;11908;50.806;4.424;2024-01-06T11:36:16;12.38;;;6.72;;
23470;SDS011;11908;50.806;4.424;2024-01-06T11:38:42;9.60;;;7.03;;
23470;SDS011;11908;50.806;4.424;2024-01-06T11:41:13;8.52;;;6.57;;
23470;SDS011;11908;50.806;4.424;2024-01-06T11:44:20;11.90;;;7.30;;
23470;SDS011;11908;50.806;4.424;2024-01-06T11:46:46;8.82;;;6.20;;
23470;SDS011;11908;50.806;4.424;2024-01-06T11:49:15;8.45;;;6.65;;
23470;SDS011;11908;50.806;4.424;2024-01-06T11:51:41;10.48;;;6.93;;
23470;SDS011;11908;50.806;4.424;2024-01-06T11:54:07;9.45;;;6.88;;
23470;SDS011;11908;50.806;4.424;2024-01-06T11:56:34;12.88;;;7.00;;
23470;SDS011;11908;50.806;4.424;2024-01-06T11:59:00;9.90;;;7.30;;
23470;SDS011;11908;50.806;4.424;2024-01-06T12:01:26;15.35;;;10.05;;
23470;SDS011;11908;50.806;4.424;2024-01-06T12:03:54;11.23;;;8.10;;
23470;SDS011;11908;50.806;4.424;2024-01-06T12:06:21;10.88;;;7.93;;
23470;SDS011;11908;50.806;4.424;2024-01-06T12:08:47;14.05;;;8.40;;
23470;SDS011;11908;50.806;4.424;2024-01-06T12:11:12;12.98;;;8.82;;
23470;SDS011;11908;50.806;4.424;2024-01-06T12:13:43;12.52;;;8.23;;
23470;SDS011;11908;50.806;4.424;2024-01-06T12:16:09;12.82;;;8.50;;
23470;SDS011;11908;50.806;4.424;2024-01-06T12:18:35;11.15;;;8.43;;
23470;SDS011;11908;50.806;4.424;2024-01-06T12:21:01;12.20;;;8.82;;
23470;SDS011;11908;50.806;4.424;2024-01-06T12:23:28;13.27;;;9.77;;
23470;SDS011;11908;50.806;4.424;2024-01-06T12:25:54;14.68;;;10.25;;
23470;SDS011;11908;50.806;4.424;2024-01-06T12:28:20;13.80;;;8.85;;
23470;SDS011;11908;50.806;4.424;2024-01-06T12:30:46;11.55;;;8.32;;
23470;SDS011;11908;50.806;4.424;2024-01-06T12:33:12;11.65;;;8.27;;
23470;SDS011;11908;50.806;4.424;2024-01-06T12:35:39;12.82;;;7.75;;
23470;SDS011;11908;50.806;4.424;2024-01-06T12:38:04;11.55;;;7.47;;
23470;SDS011;11908;50.806;4.424;2024-01-06T12:40:34;9.30;;;7.05;;
23470;SDS011;11908;50.806;4.424;2024-01-06T12:43:01;7.85;;;6.38;;
23470;SDS011;11908;50.806;4.424;2024-01-06T12:45:27;8.50;;;6.07;;
23470;SDS011;11908;50.806;4.424;2024-01-06T12:47:54;8.40;;;6.70;;
23470;SDS011;11908;50.806;4.424;2024-01-06T12:50:19;8.63;;;6.53;;
23470;SDS011;11908;50.806;4.424;2024-01-06T12:52:45;8.10;;;6.63;;
23470;SDS011;11908;50.806;4.424;2024-01-06T12:55:11;10.07;;;7.50;;
23470;SDS011;11908;50.806;4.424;2024-01-06T12:57:37;8.23;;;6.45;;
23470;SDS011;11908;50.806;4.424;2024-01-06T13:00:03;8.48;;;6.47;;
23470;SDS011;11908;50.806;4.424;2024-01-06T13:02:31;11.10;;;6.25;;
23470;SDS011;11908;50.806;4.424;2024-01-06T13:04:56;7.95;;;6.53;;
23470;SDS011;11908;50.806;4.424;2024-01-06T13:07:22;8.90;;;6.85;;
23470;SDS011;11908;50.806;4.424;2024-01-06T13:09:49;10.20;;;7.75;;
23470;SDS011;11908;50.806;4.424;2024-01-06T13:12:15;9.18;;;6.93;;
23470;SDS011;11908;50.806;4.424;2024-01-06T13:14:43;15.27;;;6.97;;
23470;SDS011;11908;50.806;4.424;2024-01-06T13:17:12;8.23;;;5.95;;
23470;SDS011;11908;50.806;4.424;2024-01-06T13:19:39;13.98;;;7.60;;
23470;SDS011;11908;50.806;4.424;2024-01-06T13:22:05;11.82;;;6.63;;
23470;SDS011;11908;50.806;4.424;2024-01-06T13:24:30;9.32;;;5.60;;
23470;SDS011;11908;50.806;4.424;2024-01-06T13:26:56;11.38;;;7.25;;
23470;SDS011;11908;50.806;4.424;2024-01-06T13:29:23;11.00;;;6.43;;
23470;SDS011;11908;50.806;4.424;2024-01-06T13:31:49;6.82;;;5.75;;
23470;SDS011;11908;50.806;4.424;2024-01-06T13:34:15;13.55;;;7.13;;
23470;SDS011;11908;50.806;4.424;2024-01-06T13:36:41;12.38;;;6.85;;
23470;SDS011;11908;50.806;4.424;2024-01-06T13:39:06;9.80;;;6.53;;
23470;SDS011;11908;50.806;4.424;2024-01-06T13:41:32;8.00;;;5.25;;
23470;SDS011;11908;50.806;4.424;2024-01-06T13:43:58;7.63;;;5.65;;
23470;SDS011;11908;50.806;4.424;2024-01-06T13:46:24;6.30;;;5.35;;
23470;SDS011;11908;50.806;4.424;2024-01-06T13:48:50;8.25;;;4.97;;
23470;SDS011;11908;50.806;4.424;2024-01-06T13:51:15;6.22;;;5.00;;
23470;SDS011;11908;50.806;4.424;2024-01-06T13:53:41;9.60;;;6.10;;
23470;SDS011;11908;50.806;4.424;2024-01-06T13:56:07;6.68;;;5.60;;
23470;SDS011;11908;50.806;4.424;2024-01-06T13:58:33;10.55;;;6.28;;
23470;SDS011;11908;50.806;4.424;2024-01-06T14:01:01;11.43;;;6.35;;
23470;SDS011;11908;50.806;4.424;2024-01-06T14:03:27;10.48;;;8.10;;
23470;SDS011;11908;50.806;4.424;2024-01-06T14:05:53;9.15;;;6.55;;
23470;SDS011;11908;50.806;4.424;2024-01-06T14:08:19;10.07;;;7.03;;
23470;SDS011;11908;50.806;4.424;2024-01-06T14:10:44;8.93;;;6.70;;
23470;SDS011;11908;50.806;4.424;2024-01-06T14:13:10;9.52;;;6.57;;
23470;SDS011;11908;50.806;4.424;2024-01-06T14:15:36;12.05;;;7.10;;
23470;SDS011;11908;50.806;4.424;2024-01-06T14:18:02;9.95;;;6.75;;
23470;SDS011;11908;50.806;4.424;2024-01-06T14:20:28;9.00;;;7.05;;
23470;SDS011;11908;50.806;4.424;2024-01-06T14:22:56;11.57;;;7.57;;
23470;SDS011;11908;50.806;4.424;2024-01-06T14:25:22;9.63;;;7.07;;
23470;SDS011;11908;50.806;4.424;2024-01-06T14:27:48;18.85;;;10.48;;
23470;SDS011;11908;50.806;4.424;2024-01-06T14:30:13;84.28;;;44.22;;
23470;SDS011;11908;50.806;4.424;2024-01-06T14:32:39;15.35;;;9.80;;
23470;SDS011;11908;50.806;4.424;2024-01-06T14:35:06;18.42;;;11.15;;